Impacts TAF Board
For situational awareness. Not to be used for flight planning purposes.
IDs:

KSDL - Scottsdale Muni, AZ, US

Issued at 1720 UTC 08 Aug 2020
Updated at 1958 UTC 08 Aug 2020
Potential Impact None Slight Moderate High
Time1953Z 08/20Z 08/21Z 08/22Z 08/23Z 09/00Z 09/01Z 09/02Z 09/03Z 09/04Z 09/05Z 09/06Z 09/07Z 09/08Z>>
Type OBS PRVL PRVL PRVL PRVL PRVL PRVL PRVL PRVL PRVL PRVL PRVL PRVL PRVL
VIS 10 >6 >6 >6 >6 >6 >6 >6 >6 >6 >6 >6 >6 >6
CIG -- -- -- -- -- -- -- -- -- -- -- -- -- --
Cover CLR FEW FEW FEW FEW FEW FEW FEW SKC SKC SKC SKC SKC SKC
FltCat VFR VFR VFR VFR VFR VFR VFR VFR VFR VFR VFR VFR VFR VFR
WX -- -- -- -- -- -- -- -- -- -- -- -- -- --
WDir 280 240 240 240 240 240 240 240 VRB VRB VRB VRB VRB VRB
WSpd 6 6 6 6 6 6 6 6 3 3 3 3 3 3
WGst -- -- -- -- -- -- -- -- -- -- -- -- -- --
Raw TAF
KSDL 081720Z 0818/0918 VRB03KT P6SM FEW100
  FM082000 24006KT P6SM FEW100
  FM090300 VRB03KT P6SM SKC


Raw METAR
KSDL 081953Z 28006KT 10SM CLR 41/03 A2991 RMK AO2 SLP094 T04060033
KSDL 081853Z 33005KT 10SM CLR 40/07 A2992 RMK AO2 SLP101 T04000072
KSDL 081753Z 00000KT 10SM CLR 38/06 A2994 RMK AO2 SLP107 T03830061 10383 20294 58003
KSDL 081653Z 00000KT 10SM CLR 36/08 A2995 RMK AO2 SLP110 T03610083

METAR Board
For situational awareness. Not to be used for flight planning purposes.